Inverness Airport

Airport
ICAO code: 
EGPE
IATA Code: 
INV
Summary
ICAO Region: 
EUR
Territory: 
Location: 
Dalcross, Scotland
Serving: 
Inverness
Elevation: 
30 ft
Coordinates: 
Aerial View: 
57° 32' 33" N, 4° 2' 51" W
Metar
Observation
EGPE 060050Z AUTO 00000KT 9999 NCD M01/M03 Q1008
Station
Inverness / Dalcross
Date/Time
2021-12-06 00:50:00
Wind direction
Wind speed
00 kts
Lowest cloud amount
no clouds detected
Temperature
-1°C
Dew point
-3°C
Humidity
86%
QNH
1008 hPa
Weather condition
n/a

Description

Small regional airport serving Inverness and the Central Highlands of Scotland.

Climatology

Temperate Marine climate/Oceanic climate (Köppen climate classification Cfb). Moderately cool summer and comparatively warm winter with a temperature range of only 14°C. Prevailing south-westerly winds from the Atlantic Ocean.

Runways

Designator Length Width Surface Rops
12/30 700 18 ASP Yes/Yes
5/23 1887 46 ASP Yes/Yes
Airport map: 
Aerial View: 

SKYbrary Partners:

Safety knowledge contributed by: